createdAt,value
2019-01-30T00:01:28.758Z,93.69
2019-01-30T00:03:57.089Z,93.72
2019-01-30T00:06:25.214Z,94.16
2019-01-30T00:08:53.274Z,94.44
2019-01-30T00:11:21.278Z,93.99
2019-01-30T00:13:49.237Z,93.63
2019-01-30T00:16:17.272Z,93.68
2019-01-30T00:18:47.921Z,93.84
2019-01-30T00:21:16.515Z,94.28
2019-01-30T00:23:44.916Z,94.06
2019-01-30T00:26:13.135Z,94.09
2019-01-30T00:28:40.829Z,94.08
2019-01-30T00:31:08.699Z,94.21
2019-01-30T00:33:36.859Z,94.02
2019-01-30T00:36:04.960Z,93.92
2019-01-30T00:38:33.350Z,93.94
2019-01-30T00:41:01.508Z,93.89
2019-01-30T00:43:29.615Z,94.04
2019-01-30T00:45:57.606Z,94.30
2019-01-30T00:48:25.723Z,94.47
2019-01-30T00:50:54.817Z,94.32
2019-01-30T00:53:22.916Z,94.11
2019-01-30T00:55:51.024Z,94.01
2019-01-30T00:58:19.115Z,93.81
2019-01-30T01:00:47.133Z,93.99
2019-01-30T01:03:15.352Z,93.71
2019-01-30T01:05:43.354Z,93.64
2019-01-30T01:08:12.532Z,93.58
2019-01-30T01:10:40.519Z,93.92
2019-01-30T01:13:08.539Z,94.02
2019-01-30T01:15:36.670Z,94.10
2019-01-30T01:18:04.928Z,93.99
2019-01-30T01:20:32.981Z,93.81
2019-01-30T01:23:01.181Z,93.83
2019-01-30T01:25:29.268Z,93.68
2019-01-30T01:27:57.305Z,93.75
2019-01-30T01:30:26.030Z,93.84
2019-01-30T01:32:54.053Z,93.91
2019-01-30T01:35:22.232Z,93.67
2019-01-30T01:37:50.203Z,93.62
2019-01-30T01:40:18.197Z,94.04
2019-01-30T01:42:46.222Z,94.41
2019-01-30T01:45:15.752Z,94.27
2019-01-30T01:47:43.958Z,94.07
2019-01-30T01:50:14.102Z,94.11
2019-01-30T01:52:42.083Z,94.17
2019-01-30T01:55:10.245Z,93.87
2019-01-30T01:57:38.388Z,93.53
2019-01-30T02:00:10.864Z,93.45
2019-01-30T02:02:38.834Z,93.33
2019-01-30T02:05:08.968Z,93.57
2019-01-30T02:07:37.050Z,93.76
2019-01-30T02:10:05.935Z,93.71
2019-01-30T02:12:33.965Z,93.53
2019-01-30T02:15:02.173Z,93.43
2019-01-30T02:17:30.312Z,93.23
2019-01-30T02:19:58.120Z,93.28
2019-01-30T02:22:26.169Z,92.95
2019-01-30T02:24:54.086Z,93.22
2019-01-30T02:27:21.937Z,93.15
2019-01-30T02:29:49.876Z,93.27
2019-01-30T02:32:18.042Z,93.18
2019-01-30T02:34:46.119Z,93.27
2019-01-30T02:37:14.542Z,93.28
2019-01-30T02:39:42.622Z,93.75
2019-01-30T02:42:10.930Z,93.68
2019-01-30T02:44:38.675Z,93.53
2019-01-30T02:47:06.770Z,93.44
2019-01-30T02:49:34.686Z,93.60
2019-01-30T02:52:04.279Z,93.50
2019-01-30T02:54:32.169Z,93.39
2019-01-30T02:57:00.107Z,93.87
2019-01-30T02:59:28.016Z,93.77
2019-01-30T03:02:14.377Z,93.80
2019-01-30T03:04:42.379Z,93.80
2019-01-30T03:07:10.159Z,93.99
2019-01-30T03:09:38.236Z,94.00
2019-01-30T03:12:06.258Z,94.14
2019-01-30T03:14:34.209Z,94.23
2019-01-30T03:17:02.227Z,94.13
2019-01-30T03:19:30.147Z,94.64
2019-01-30T03:21:58.338Z,94.69
2019-01-30T03:24:27.385Z,94.65
2019-01-30T03:26:55.454Z,94.56
2019-01-30T03:29:23.364Z,94.45
2019-01-30T03:31:51.464Z,94.48
2019-01-30T03:34:21.172Z,94.58
2019-01-30T03:36:49.185Z,94.64
2019-01-30T03:39:17.255Z,94.52
2019-01-30T03:41:45.294Z,94.63
2019-01-30T03:44:13.487Z,94.62
2019-01-30T03:46:41.691Z,94.42
2019-01-30T03:49:09.652Z,94.60
2019-01-30T03:51:37.817Z,94.61
2019-01-30T03:54:06.665Z,94.59
2019-01-30T03:56:34.816Z,94.46
2019-01-30T03:59:04.322Z,94.63
2019-01-30T04:01:32.470Z,94.65
2019-01-30T04:04:00.742Z,94.88
2019-01-30T04:06:29.041Z,95.00
2019-01-30T04:08:57.413Z,95.04
2019-01-30T04:11:25.291Z,95.34
2019-01-30T04:13:53.291Z,95.49
2019-01-30T04:16:21.420Z,95.22
2019-01-30T04:18:49.470Z,95.06
2019-01-30T04:21:17.374Z,95.06
2019-01-30T04:23:45.298Z,95.08
2019-01-30T04:26:13.299Z,94.99
2019-01-30T04:28:41.341Z,95.02
2019-01-30T04:31:09.374Z,95.04
2019-01-30T04:33:37.495Z,95.08
2019-01-30T04:36:05.534Z,94.95
2019-01-30T04:38:33.618Z,94.88
2019-01-30T04:41:01.448Z,94.71
2019-01-30T04:43:29.364Z,94.63
2019-01-30T04:45:57.442Z,94.58
2019-01-30T04:48:25.573Z,94.74
2019-01-30T04:50:53.614Z,94.93
2019-01-30T04:53:21.529Z,94.99
2019-01-30T04:55:49.454Z,94.93
2019-01-30T04:58:19.162Z,94.92
2019-01-30T05:00:46.934Z,94.78
2019-01-30T05:03:15.479Z,94.77
2019-01-30T05:05:43.246Z,94.63
2019-01-30T05:08:11.098Z,94.57
2019-01-30T05:10:38.900Z,94.66
2019-01-30T05:13:06.986Z,94.49
2019-01-30T05:15:35.053Z,94.34
2019-01-30T05:18:03.162Z,94.51
2019-01-30T05:20:33.030Z,94.60
2019-01-30T05:23:01.139Z,94.66
2019-01-30T05:25:29.237Z,94.18
2019-01-30T05:27:59.097Z,93.85
2019-01-30T05:30:28.887Z,93.90
2019-01-30T05:32:57.058Z,94.01
2019-01-30T05:35:25.046Z,94.03
2019-01-30T05:37:53.132Z,94.14
2019-01-30T05:40:21.325Z,93.91
2019-01-30T05:42:49.373Z,94.19
2019-01-30T05:45:17.679Z,94.50
2019-01-30T05:47:46.809Z,94.56
2019-01-30T05:50:15.108Z,94.27
2019-01-30T05:52:43.033Z,94.28
2019-01-30T05:55:11.495Z,94.40
2019-01-30T05:57:39.550Z,94.44
2019-01-30T06:00:24.455Z,94.41
2019-01-30T06:02:52.576Z,94.45
2019-01-30T06:05:20.882Z,94.34
2019-01-30T06:07:48.996Z,94.27
2019-01-30T06:10:16.964Z,94.33
2019-01-30T06:12:44.813Z,94.50
2019-01-30T06:15:13.296Z,94.43
2019-01-30T06:17:41.493Z,94.41
2019-01-30T06:20:13.051Z,94.33
2019-01-30T06:22:41.095Z,94.30
2019-01-30T06:25:09.339Z,94.36
2019-01-30T06:27:37.441Z,94.14
2019-01-30T06:30:06.734Z,93.74
2019-01-30T06:32:34.693Z,92.89
2019-01-30T06:35:02.601Z,92.59
2019-01-30T06:37:30.720Z,92.50
2019-01-30T06:39:58.699Z,92.44
2019-01-30T06:42:26.563Z,92.25
2019-01-30T06:44:54.523Z,92.25
2019-01-30T06:47:22.422Z,92.18
2019-01-30T06:49:50.599Z,92.28
2019-01-30T06:52:18.822Z,92.26
2019-01-30T06:54:46.996Z,92.10
2019-01-30T06:57:14.978Z,92.30
2019-01-30T06:59:42.976Z,92.27
2019-01-30T07:02:10.972Z,92.06
2019-01-30T07:04:39.174Z,91.15
2019-01-30T07:07:07.421Z,90.58
2019-01-30T07:09:35.665Z,90.31
2019-01-30T07:12:04.003Z,89.97
2019-01-30T07:14:31.834Z,88.79
2019-01-30T07:16:59.960Z,88.29
2019-01-30T07:19:28.096Z,89.09
2019-01-30T07:21:55.971Z,88.27
2019-01-30T07:24:23.935Z,88.64
2019-01-30T07:26:52.057Z,88.87
2019-01-30T07:29:20.076Z,88.68
2019-01-30T07:31:48.070Z,88.78
2019-01-30T07:34:15.968Z,88.70
2019-01-30T07:36:43.965Z,87.83
2019-01-30T07:39:11.962Z,88.52
2019-01-30T07:41:39.844Z,89.21
2019-01-30T07:44:07.696Z,89.01
2019-01-30T07:46:35.864Z,89.32
2019-01-30T07:49:03.852Z,88.75
2019-01-30T07:51:31.931Z,88.46
2019-01-30T07:53:59.985Z,88.70
2019-01-30T07:56:29.001Z,89.21
2019-01-30T07:58:57.258Z,88.59
2019-01-30T08:01:25.221Z,88.08
2019-01-30T08:03:53.725Z,88.13
2019-01-30T08:06:22.064Z,87.78
2019-01-30T08:08:50.182Z,87.37
2019-01-30T08:11:18.387Z,87.19
2019-01-30T08:13:46.264Z,87.50
2019-01-30T08:16:14.070Z,87.40
2019-01-30T08:18:41.929Z,87.01
2019-01-30T08:21:09.843Z,86.59
2019-01-30T08:23:37.998Z,86.41
2019-01-30T08:26:06.200Z,86.08
2019-01-30T08:28:34.492Z,85.86
2019-01-30T08:31:03.087Z,85.46
2019-01-30T08:33:31.037Z,85.80
2019-01-30T08:35:59.155Z,85.92
2019-01-30T08:38:27.148Z,86.64
2019-01-30T08:40:55.154Z,86.56
2019-01-30T08:43:23.179Z,86.63
2019-01-30T08:45:51.256Z,87.06
2019-01-30T08:48:19.426Z,86.90
2019-01-30T08:50:47.471Z,87.21
2019-01-30T08:53:15.341Z,86.92
2019-01-30T08:55:43.354Z,86.47
2019-01-30T08:58:11.428Z,86.02
2019-01-30T09:00:39.284Z,85.79
2019-01-30T09:03:14.594Z,86.06
2019-01-30T09:05:37.296Z,84.56
2019-01-30T09:08:05.427Z,83.53
2019-01-30T09:10:33.522Z,82.94
2019-01-30T09:13:01.579Z,84.18
2019-01-30T09:15:29.609Z,84.10
2019-01-30T09:17:57.672Z,83.79
2019-01-30T09:20:25.874Z,84.00
2019-01-30T09:22:53.938Z,84.50
2019-01-30T09:25:23.711Z,84.72
2019-01-30T09:27:51.759Z,84.93
2019-01-30T09:30:40.749Z,85.07
2019-01-30T09:33:09.686Z,86.15
2019-01-30T09:35:37.597Z,85.34
2019-01-30T09:38:05.436Z,85.22
2019-01-30T09:40:33.399Z,84.33
2019-01-30T09:43:01.449Z,84.64
2019-01-30T09:45:29.569Z,83.89
2019-01-30T09:47:57.788Z,83.82
2019-01-30T09:50:26.026Z,84.31
2019-01-30T09:52:54.355Z,83.23
2019-01-30T09:55:22.942Z,83.43
2019-01-30T09:57:52.777Z,83.57
2019-01-30T10:00:24.374Z,84.17
2019-01-30T10:02:52.467Z,84.17
2019-01-30T10:05:20.494Z,85.26
2019-01-30T10:07:48.599Z,83.28
2019-01-30T10:10:19.340Z,82.96
2019-01-30T10:12:47.556Z,82.67
2019-01-30T10:15:17.538Z,82.49
2019-01-30T10:17:45.328Z,81.10
2019-01-30T10:20:16.117Z,81.08
2019-01-30T10:22:44.333Z,79.96
2019-01-30T10:25:12.603Z,80.03
2019-01-30T10:27:40.576Z,78.54
2019-01-30T10:30:11.208Z,76.65
2019-01-30T10:32:39.176Z,77.33
2019-01-30T10:35:07.097Z,76.85
2019-01-30T10:37:35.021Z,76.38
2019-01-30T10:40:03.509Z,76.46
2019-01-30T10:42:31.582Z,75.90
2019-01-30T10:44:59.843Z,77.42
2019-01-30T10:47:27.969Z,78.85
2019-01-30T10:49:55.978Z,78.44
2019-01-30T10:52:24.102Z,78.34
2019-01-30T10:54:53.605Z,78.21
2019-01-30T10:57:21.896Z,78.61
2019-01-30T10:59:50.144Z,78.79
2019-01-30T11:02:21.425Z,77.97
2019-01-30T11:04:49.486Z,76.35
2019-01-30T11:07:17.457Z,76.23
2019-01-30T11:09:45.410Z,78.16
2019-01-30T11:12:13.407Z,76.11
2019-01-30T11:14:41.218Z,75.21
2019-01-30T11:17:09.248Z,74.12
2019-01-30T11:19:37.152Z,72.82
2019-01-30T11:22:05.588Z,72.22
2019-01-30T11:24:33.588Z,70.97
2019-01-30T11:27:01.765Z,72.88
2019-01-30T11:29:29.922Z,71.53
2019-01-30T11:31:57.988Z,70.84
2019-01-30T11:34:25.848Z,70.90
2019-01-30T11:36:53.756Z,70.72
2019-01-30T11:39:21.792Z,70.99
2019-01-30T11:41:49.955Z,71.49
2019-01-30T11:44:18.044Z,71.81
2019-01-30T11:46:45.999Z,72.73
2019-01-30T11:49:14.253Z,72.83
2019-01-30T11:51:42.157Z,73.24
2019-01-30T11:54:10.341Z,73.00
2019-01-30T11:56:39.349Z,72.71
2019-01-30T11:59:07.297Z,73.42
2019-01-30T12:01:35.570Z,74.13
2019-01-30T12:04:04.075Z,75.24
2019-01-30T12:06:32.096Z,75.13
2019-01-30T12:09:00.198Z,75.57
2019-01-30T12:11:29.099Z,76.91
2019-01-30T12:13:57.090Z,77.61
2019-01-30T12:16:25.065Z,77.94
2019-01-30T12:18:53.127Z,78.35
2019-01-30T12:21:21.040Z,78.62
2019-01-30T12:23:48.989Z,79.07
2019-01-30T12:26:16.959Z,79.35
2019-01-30T12:28:45.307Z,79.45
2019-01-30T12:31:13.244Z,80.03
2019-01-30T12:33:41.284Z,79.79
2019-01-30T12:36:09.349Z,80.49
2019-01-30T12:38:38.257Z,80.32
2019-01-30T12:41:06.197Z,80.69
2019-01-30T12:43:34.126Z,80.99
2019-01-30T12:46:02.042Z,81.01
2019-01-30T12:48:30.069Z,81.51
2019-01-30T12:50:58.148Z,81.90
2019-01-30T12:53:25.967Z,82.10
2019-01-30T12:55:54.171Z,82.36
2019-01-30T12:58:22.356Z,81.95
2019-01-30T13:00:50.635Z,81.17
2019-01-30T13:03:18.727Z,81.17
2019-01-30T13:05:46.745Z,82.00
2019-01-30T13:08:14.702Z,81.81
2019-01-30T13:10:42.694Z,81.57
2019-01-30T13:13:10.891Z,81.45
2019-01-30T13:15:40.474Z,82.13
2019-01-30T13:18:18.046Z,81.36
2019-01-30T13:20:38.751Z,81.14
2019-01-30T13:23:06.764Z,81.10
2019-01-30T13:25:35.760Z,80.73
2019-01-30T13:28:05.228Z,80.77
2019-01-30T13:30:37.728Z,79.94
2019-01-30T13:33:07.142Z,79.48
2019-01-30T13:35:35.130Z,79.65
2019-01-30T13:38:03.358Z,79.70
2019-01-30T13:40:33.683Z,79.68
2019-01-30T13:43:01.939Z,79.34
2019-01-30T13:45:30.569Z,79.35
2019-01-30T13:47:58.586Z,78.90
2019-01-30T13:50:27.879Z,78.38
2019-01-30T13:52:55.884Z,77.66
2019-01-30T13:55:23.790Z,76.51
2019-01-30T13:57:51.854Z,76.08
2019-01-30T14:00:25.110Z,75.27
2019-01-30T14:02:53.205Z,74.53
2019-01-30T14:05:21.628Z,73.35
2019-01-30T14:07:50.065Z,71.79
2019-01-30T14:10:18.221Z,72.31
2019-01-30T14:12:46.147Z,72.32
2019-01-30T14:15:15.705Z,72.35
2019-01-30T14:17:43.717Z,70.78
2019-01-30T14:20:12.296Z,70.46
2019-01-30T14:22:40.387Z,70.77
2019-01-30T14:25:09.189Z,70.29
2019-01-30T14:27:37.023Z,70.14
2019-01-30T14:30:08.689Z,70.07
2019-01-30T14:32:36.677Z,69.98
2019-01-30T14:35:10.773Z,69.34
2019-01-30T14:37:35.358Z,69.62
2019-01-30T14:40:04.586Z,70.14
2019-01-30T14:42:35.076Z,69.98
2019-01-30T14:45:07.263Z,69.76
2019-01-30T14:47:35.134Z,70.40
2019-01-30T14:50:04.138Z,70.61
2019-01-30T14:52:31.988Z,70.31
2019-01-30T14:55:00.247Z,69.84
2019-01-30T14:57:28.523Z,70.19
2019-01-30T14:59:56.504Z,71.09
2019-01-30T15:02:24.489Z,70.60
2019-01-30T15:04:52.673Z,71.36
2019-01-30T15:07:28.824Z,72.05
2019-01-30T15:09:50.406Z,72.54
2019-01-30T15:12:18.520Z,72.45
2019-01-30T15:14:46.589Z,72.79
2019-01-30T15:17:14.824Z,73.37
2019-01-30T15:19:42.852Z,74.25
2019-01-30T15:22:11.108Z,75.01
2019-01-30T15:24:39.274Z,75.77
2019-01-30T15:27:07.672Z,75.92
2019-01-30T15:29:35.587Z,76.07
2019-01-30T15:32:03.940Z,76.92
2019-01-30T15:34:31.888Z,76.62
2019-01-30T15:36:59.776Z,76.81
2019-01-30T15:39:27.860Z,76.75
2019-01-30T15:41:56.098Z,76.82
2019-01-30T15:44:25.182Z,77.50
2019-01-30T15:46:53.185Z,77.96
2019-01-30T15:49:21.150Z,78.02
2019-01-30T15:51:48.927Z,78.79
2019-01-30T15:54:18.785Z,79.09
2019-01-30T15:56:46.986Z,79.26
2019-01-30T15:59:14.996Z,79.87
2019-01-30T16:01:44.892Z,79.79
2019-01-30T16:04:13.887Z,79.73
2019-01-30T16:06:41.956Z,79.96
2019-01-30T16:09:09.939Z,80.20
2019-01-30T16:11:37.805Z,80.21
2019-01-30T16:14:05.905Z,80.02
2019-01-30T16:16:33.899Z,80.74
2019-01-30T16:19:01.795Z,80.45
2019-01-30T16:21:31.131Z,80.51
2019-01-30T16:24:02.002Z,80.73
2019-01-30T16:26:29.919Z,80.78
2019-01-30T16:28:57.755Z,81.18
2019-01-30T16:31:25.839Z,81.24
2019-01-30T16:33:53.904Z,81.37
2019-01-30T16:36:21.867Z,81.35
2019-01-30T16:38:49.943Z,81.66
2019-01-30T16:41:18.018Z,81.57
2019-01-30T16:43:46.058Z,81.63
2019-01-30T16:46:15.560Z,81.60
2019-01-30T16:48:43.797Z,81.77
2019-01-30T16:51:11.942Z,82.05
2019-01-30T16:53:40.049Z,81.62
2019-01-30T16:56:08.181Z,82.12
2019-01-30T16:58:36.228Z,82.44
2019-01-30T17:01:04.549Z,82.82
2019-01-30T17:03:32.595Z,82.79
2019-01-30T17:06:07.482Z,82.79
2019-01-30T17:08:33.171Z,82.80
2019-01-30T17:11:01.310Z,83.06
2019-01-30T17:13:29.302Z,83.10
2019-01-30T17:15:57.380Z,83.24
2019-01-30T17:18:25.260Z,83.28
2019-01-30T17:20:53.101Z,83.45
2019-01-30T17:23:21.124Z,83.89
2019-01-30T17:25:49.264Z,83.92
2019-01-30T17:28:17.067Z,84.08
2019-01-30T17:30:54.326Z,84.03
2019-01-30T17:33:22.210Z,83.99
2019-01-30T17:35:50.155Z,84.02
2019-01-30T17:38:18.049Z,83.82
2019-01-30T17:40:46.354Z,83.81
2019-01-30T17:43:14.473Z,84.07
2019-01-30T17:45:42.461Z,84.06
2019-01-30T17:48:11.762Z,84.11
2019-01-30T17:50:40.382Z,83.99
2019-01-30T17:53:08.220Z,83.91
2019-01-30T17:55:37.709Z,84.06
2019-01-30T17:58:06.745Z,84.28
2019-01-30T18:00:52.481Z,84.02
2019-01-30T18:03:20.610Z,84.27
2019-01-30T18:05:48.618Z,84.51
2019-01-30T18:08:22.362Z,84.36
2019-01-30T18:10:50.495Z,83.99
2019-01-30T18:13:18.146Z,83.75
2019-01-30T18:15:45.882Z,83.82
2019-01-30T18:18:13.486Z,83.97
2019-01-30T18:20:41.321Z,83.56
2019-01-30T18:23:09.050Z,83.39
2019-01-30T18:25:36.785Z,83.55
2019-01-30T18:28:04.533Z,83.75
2019-01-30T18:30:32.268Z,84.13
2019-01-30T18:32:59.901Z,83.93
2019-01-30T18:35:27.881Z,83.89
2019-01-30T18:37:55.430Z,83.77
2019-01-30T18:40:23.079Z,83.57
2019-01-30T18:42:50.686Z,83.24
2019-01-30T18:45:26.671Z,83.39
2019-01-30T18:47:54.429Z,83.41
2019-01-30T18:50:24.067Z,83.44
2019-01-30T18:52:51.675Z,83.68
2019-01-30T18:55:19.517Z,83.94
2019-01-30T18:57:47.768Z,84.06
2019-01-30T19:00:27.088Z,84.05
2019-01-30T19:02:56.358Z,83.90
2019-01-30T19:05:24.225Z,84.05
2019-01-30T19:07:51.979Z,83.95
2019-01-30T19:10:19.705Z,84.17
2019-01-30T19:12:47.371Z,84.41
2019-01-30T19:15:17.316Z,84.54
2019-01-30T19:17:44.885Z,84.59
2019-01-30T19:20:15.768Z,84.44
2019-01-30T19:22:43.365Z,84.54
2019-01-30T19:25:11.527Z,84.48
2019-01-30T19:27:39.123Z,84.51
2019-01-30T19:30:10.990Z,84.58
2019-01-30T19:32:38.660Z,84.77
2019-01-30T19:35:06.595Z,84.75
2019-01-30T19:37:34.264Z,84.75
2019-01-30T19:40:01.922Z,84.79
2019-01-30T19:42:29.577Z,84.75
2019-01-30T19:44:57.302Z,84.89
2019-01-30T19:47:24.891Z,85.13
2019-01-30T19:49:52.582Z,85.19
2019-01-30T19:52:20.241Z,85.51
2019-01-30T19:54:48.115Z,85.64
2019-01-30T19:57:15.650Z,85.64
2019-01-30T19:59:43.440Z,85.58
2019-01-30T20:02:11.090Z,85.87
2019-01-30T20:04:41.620Z,86.16
2019-01-30T20:07:14.861Z,86.14
2019-01-30T20:09:38.890Z,86.04
2019-01-30T20:12:06.480Z,86.44
2019-01-30T20:14:34.168Z,86.37
2019-01-30T20:17:01.789Z,86.49
2019-01-30T20:19:29.467Z,86.99
2019-01-30T20:21:57.102Z,87.08
2019-01-30T20:24:26.568Z,87.20
2019-01-30T20:26:54.167Z,87.51
2019-01-30T20:29:22.842Z,87.69
2019-01-30T20:31:50.583Z,87.74
2019-01-30T20:34:18.321Z,87.74
2019-01-30T20:36:46.047Z,87.69
2019-01-30T20:39:16.454Z,87.69
2019-01-30T20:41:44.227Z,88.03
2019-01-30T20:44:11.961Z,88.01
2019-01-30T20:46:39.744Z,88.11
2019-01-30T20:49:07.535Z,88.23
2019-01-30T20:51:35.262Z,88.28
2019-01-30T20:54:03.001Z,88.09
2019-01-30T20:56:30.695Z,88.06
2019-01-30T20:58:58.354Z,88.45
2019-01-30T21:01:26.490Z,88.44
2019-01-30T21:03:54.408Z,88.32
2019-01-30T21:06:22.483Z,88.30
2019-01-30T21:08:50.511Z,88.71
2019-01-30T21:11:18.144Z,88.65
2019-01-30T21:13:45.727Z,89.02
2019-01-30T21:16:13.402Z,88.88
2019-01-30T21:18:41.030Z,88.98
2019-01-30T21:21:08.700Z,88.87
2019-01-30T21:23:36.351Z,88.93
2019-01-30T21:26:04.114Z,88.80
2019-01-30T21:28:32.102Z,88.96
2019-01-30T21:31:00.161Z,89.36
2019-01-30T21:33:28.204Z,89.24
2019-01-30T21:35:56.519Z,89.23
2019-01-30T21:38:24.584Z,89.40
2019-01-30T21:40:52.524Z,89.37
2019-01-30T21:43:20.557Z,89.39
2019-01-30T21:45:48.776Z,89.02
2019-01-30T21:48:16.844Z,89.05
2019-01-30T21:50:44.828Z,89.24
2019-01-30T21:53:12.791Z,89.58
2019-01-30T21:55:40.754Z,89.53
2019-01-30T21:58:09.110Z,89.66
2019-01-30T22:00:37.002Z,89.63
2019-01-30T22:03:05.067Z,89.82
2019-01-30T22:05:32.814Z,89.92
2019-01-30T22:08:01.377Z,90.31
2019-01-30T22:10:29.554Z,90.12
2019-01-30T22:12:57.153Z,90.36
2019-01-30T22:15:26.503Z,90.21
2019-01-30T22:17:54.118Z,90.52
2019-01-30T22:20:23.417Z,90.35
2019-01-30T22:22:51.030Z,90.45
2019-01-30T22:25:20.708Z,90.38
2019-01-30T22:27:49.288Z,90.52
2019-01-30T22:30:22.154Z,90.74
2019-01-30T22:32:50.297Z,90.94
2019-01-30T22:35:18.074Z,91.48
2019-01-30T22:37:45.764Z,91.62
2019-01-30T22:40:14.019Z,91.54
2019-01-30T22:42:41.752Z,91.24
2019-01-30T22:45:11.779Z,91.22
2019-01-30T22:47:39.476Z,91.39
2019-01-30T22:50:08.141Z,91.64
2019-01-30T22:52:35.824Z,91.49
2019-01-30T22:55:04.733Z,91.58
2019-01-30T22:57:32.463Z,91.84
2019-01-30T23:00:00.098Z,92.11
2019-01-30T23:02:28.986Z,91.71
2019-01-30T23:05:24.841Z,91.47
2019-01-30T23:08:09.202Z,91.73
2019-01-30T23:11:19.944Z,91.82
2019-01-30T23:14:35.455Z,91.97
2019-01-30T23:17:49.496Z,92.21
2019-01-30T23:20:30.297Z,92.12
2019-01-30T23:23:23.935Z,91.79
2019-01-30T23:26:13.408Z,91.70
2019-01-30T23:29:14.345Z,91.64
2019-01-30T23:32:00.811Z,91.51
2019-01-30T23:35:01.760Z,91.42
2019-01-30T23:38:06.863Z,91.24
2019-01-30T23:40:51.938Z,91.17
2019-01-30T23:43:48.482Z,91.35
2019-01-30T23:46:38.423Z,91.61
2019-01-30T23:49:44.460Z,91.61
2019-01-30T23:52:39.787Z,91.62
2019-01-30T23:55:48.346Z,91.57
2019-01-30T23:58:53.563Z,91.28
